Bethlehem, Mississippi
Current Conditions -  °F | °C
As of 5:35 PM on Saturday 25 Oct 2014 (Local Time) from KUOX Reporting Station
Clear Clear  
Wind Chill: 75°   Ceiling: Unl
Heat Index: 75°   Visibility: 9mi
Dew Point: 64°   Wind: 3mph
Humidity: 69%   Direction: 220°SW
Pressure: 30.05"   Gusts: NA
Location:  34.5725°N, 89.3417°W
Report Text: KUOX 252235Z AUTO 22003KT 9SM CLR 24/18 A3005 RMK AO2 PWINO PNO
Loading
Personal Weather Stations






























Interactive Weather Map
Tropical Storm Tracking
New forecast layout! Learn more

10-Day Weather Forecast

Advertisements
Track Severe Weather on mobile